Time;durP1;ratioP1;P1;durP2;ratioP2;P2;SDS_P1;SDS_P2;PMS_P1;PMS_P2;Temp;Humidity;BMP_temperature;BMP_pressure;BME280_temperature;BME280_humidity;BME280_pressure;Samples;Min_cycle;Max_cycle;Signal;HPM_P1;HPM_P2
2021/04/04 00:00:22;;;;;;;2.80;1.35;;;2.70;99.90;;;;;;5061582;28;20039;-73
2021/04/04 00:02:47;;;;;;;2.53;1.55;;;2.80;99.90;;;;;;5059209;28;20064;-73
2021/04/04 00:05:13;;;;;;;4.72;1.60;;;2.80;99.90;;;;;;5064320;28;20059;-73
2021/04/04 00:07:40;;;;;;;2.25;1.42;;;2.80;99.90;;;;;;5061090;28;20116;-74
2021/04/04 00:10:07;;;;;;;2.03;1.20;;;2.80;99.90;;;;;;5060780;28;20028;-74
2021/04/04 00:12:34;;;;;;;2.03;1.40;;;2.80;99.90;;;;;;5061882;28;20156;-74
2021/04/04 00:15:00;;;;;;;2.47;1.40;;;2.90;99.90;;;;;;5060956;28;20033;-73
2021/04/04 00:17:26;;;;;;;3.55;1.10;;;2.90;99.90;;;;;;5061706;28;20039;-73
2021/04/04 00:19:51;;;;;;;3.60;1.23;;;2.90;99.90;;;;;;5065011;28;20033;-73
2021/04/04 00:22:17;;;;;;;2.35;1.05;;;2.90;99.90;;;;;;5060865;28;20490;-73
2021/04/04 00:24:43;;;;;;;2.10;1.13;;;3.00;99.90;;;;;;5060809;28;20055;-73
2021/04/04 00:27:08;;;;;;;2.65;1.10;;;3.00;99.90;;;;;;5062221;28;20028;-73
2021/04/04 00:29:34;;;;;;;3.28;1.23;;;3.00;99.90;;;;;;5060916;28;20109;-73
2021/04/04 00:32:00;;;;;;;3.08;1.75;;;3.00;99.90;;;;;;5061033;28;20056;-73
2021/04/04 00:34:26;;;;;;;4.00;1.70;;;3.10;99.90;;;;;;5061033;28;20082;-73
2021/04/04 00:36:51;;;;;;;1.98;1.42;;;3.10;99.90;;;;;;5060266;28;20050;-73
2021/04/04 00:39:17;;;;;;;2.17;1.50;;;3.00;99.90;;;;;;5062683;28;20040;-73
2021/04/04 00:41:44;;;;;;;2.90;1.30;;;3.00;99.90;;;;;;5060186;28;20116;-73
2021/04/04 00:44:10;;;;;;;2.28;0.98;;;2.90;99.90;;;;;;5060695;28;20056;-73
2021/04/04 00:46:37;;;;;;;2.55;1.25;;;2.90;99.90;;;;;;5060569;28;20032;-73
2021/04/04 00:49:03;;;;;;;1.80;1.08;;;2.90;99.90;;;;;;5095390;28;20030;-73
2021/04/04 00:51:30;;;;;;;2.15;1.45;;;2.90;99.90;;;;;;5058569;28;20038;-73
2021/04/04 00:53:56;;;;;;;3.33;1.70;;;2.90;99.90;;;;;;5061223;28;20041;-73
2021/04/04 00:56:22;;;;;;;3.65;1.40;;;3.00;99.90;;;;;;5059813;28;20108;-73
2021/04/04 00:58:48;;;;;;;2.90;1.73;;;3.00;99.90;;;;;;5058853;28;20060;-73
2021/04/04 01:01:14;;;;;;;3.85;1.63;;;2.90;99.90;;;;;;5057531;28;20028;-73
2021/04/04 01:03:40;;;;;;;1.73;1.30;;;2.90;99.90;;;;;;5059123;28;20025;-73
2021/04/04 01:06:07;;;;;;;2.10;1.58;;;2.90;99.90;;;;;;5059380;28;20029;-73
2021/04/04 01:08:38;;;;;;;4.32;1.60;;;2.90;99.90;;;;;;5060084;28;20036;-73
2021/04/04 01:11:06;;;;;;;2.97;1.40;;;2.90;99.90;;;;;;5061521;28;20033;-73
2021/04/04 01:13:54;;;;;;;3.78;1.58;;;2.90;99.90;;;;;;5061183;28;20028;-73
2021/04/04 01:16:29;;;;;;;2.30;1.60;;;2.80;99.90;;;;;;5058209;28;20556;-73
2021/04/04 01:19:20;;;;;;;3.28;1.48;;;2.80;99.90;;;;;;5058850;28;20507;-73
2021/04/04 01:22:11;;;;;;;3.08;1.70;;;2.70;99.90;;;;;;5053354;28;20090;-73
2021/04/04 01:24:50;;;;;;;2.55;1.77;;;2.70;99.90;;;;;;5060491;28;20075;-73
2021/04/04 01:27:39;;;;;;;4.13;1.60;;;2.70;99.90;;;;;;5058353;28;20091;-73
2021/04/04 01:30:07;;;;;;;3.10;1.88;;;2.60;99.90;;;;;;5062016;28;20028;-74
2021/04/04 01:32:35;;;;;;;2.72;1.50;;;2.60;99.90;;;;;;5058943;28;20027;-73
2021/04/04 01:35:03;;;;;;;2.00;1.20;;;2.60;99.90;;;;;;5059824;28;20037;-74
2021/04/04 01:37:29;;;;;;;2.25;1.52;;;2.60;99.90;;;;;;5059762;28;20035;-73
2021/04/04 01:39:59;;;;;;;1.80;1.30;;;2.60;99.90;;;;;;5061193;28;20476;-73
2021/04/04 01:42:25;;;;;;;3.30;1.30;;;2.60;99.90;;;;;;5058599;28;20107;-73
2021/04/04 01:44:52;;;;;;;2.17;1.08;;;2.60;99.90;;;;;;5058215;28;20116;-73
2021/04/04 01:47:20;;;;;;;2.88;1.40;;;2.60;99.90;;;;;;5059968;28;20379;-74
2021/04/04 01:49:48;;;;;;;2.88;1.48;;;2.60;99.90;;;;;;5057869;28;20029;-73
2021/04/04 01:52:15;;;;;;;2.35;1.45;;;2.60;99.90;;;;;;5059009;28;20534;-73
2021/04/04 01:54:42;;;;;;;3.38;1.48;;;2.50;99.90;;;;;;5057617;28;20051;-73
2021/04/04 01:57:09;;;;;;;4.82;1.90;;;2.50;99.90;;;;;;5042186;28;20066;-73
2021/04/04 01:59:35;;;;;;;2.80;1.65;;;2.50;99.90;;;;;;5060270;28;20036;-73
2021/04/04 02:02:03;;;;;;;3.95;1.40;;;2.50;99.90;;;;;;5060790;28;20507;-73
2021/04/04 02:04:29;;;;;;;3.40;1.40;;;2.50;99.90;;;;;;5059784;28;20479;-73
2021/04/04 02:06:56;;;;;;;3.78;1.58;;;2.50;99.90;;;;;;5062330;28;20048;-73
2021/04/04 02:09:23;;;;;;;3.55;1.50;;;2.50;99.90;;;;;;5060034;28;20036;-74
2021/04/04 02:11:50;;;;;;;3.83;2.03;;;2.40;99.90;;;;;;5058517;28;20028;-73
2021/04/04 02:14:20;;;;;;;3.78;1.38;;;2.40;99.90;;;;;;5060871;28;20037;-74
2021/04/04 02:16:47;;;;;;;1.95;1.60;;;2.40;99.90;;;;;;5058404;28;20021;-73
2021/04/04 02:19:15;;;;;;;3.97;1.95;;;2.40;99.90;;;;;;5059954;28;20085;-73
2021/04/04 02:21:41;;;;;;;3.60;1.65;;;2.30;99.90;;;;;;5058808;28;20120;-74
2021/04/04 02:24:08;;;;;;;2.33;1.85;;;2.30;99.90;;;;;;5055845;28;20036;-74
2021/04/04 02:26:34;;;;;;;5.80;2.40;;;2.30;99.90;;;;;;5057864;28;20050;-73
2021/04/04 02:29:04;;;;;;;5.40;1.98;;;2.30;99.90;;;;;;5060965;28;20021;-73
2021/04/04 02:31:35;;;;;;;3.50;1.60;;;2.30;99.90;;;;;;5055556;28;20025;-74
2021/04/04 02:34:08;;;;;;;3.92;1.40;;;2.30;99.90;;;;;;5059100;28;20421;-73
2021/04/04 02:36:34;;;;;;;3.00;1.33;;;2.20;99.90;;;;;;5059233;28;20037;-73
2021/04/04 02:39:05;;;;;;;6.05;1.70;;;2.10;99.90;;;;;;5058947;28;20037;-73
2021/04/04 02:41:33;;;;;;;2.72;1.73;;;2.10;99.90;;;;;;5056546;28;20029;-73
2021/04/04 02:44:00;;;;;;;4.35;2.45;;;2.00;99.90;;;;;;5059126;28;20036;-73
2021/04/04 02:46:27;;;;;;;2.80;1.70;;;2.00;99.90;;;;;;5057198;28;20026;-73
2021/04/04 02:48:56;;;;;;;3.50;1.73;;;1.90;99.90;;;;;;5058519;28;20060;-73
2021/04/04 02:51:46;;;;;;;5.68;1.92;;;1.90;99.90;;;;;;5057661;28;20037;-73
2021/04/04 02:54:16;;;;;;;3.08;1.70;;;1.80;99.90;;;;;;5057305;28;20041;-73
2021/04/04 02:56:46;;;;;;;2.70;1.75;;;1.80;99.90;;;;;;5059006;28;20028;-73
2021/04/04 02:59:22;;;;;;;2.28;1.52;;;1.70;99.90;;;;;;5057774;28;20037;-73
2021/04/04 03:01:50;;;;;;;2.30;1.38;;;1.70;99.90;;;;;;5046385;28;20526;-73
2021/04/04 03:04:16;;;;;;;4.28;1.75;;;1.70;99.90;;;;;;5059588;28;20483;-73
2021/04/04 03:06:44;;;;;;;2.83;1.83;;;1.60;99.90;;;;;;5056258;28;20596;-73
2021/04/04 03:09:11;;;;;;;5.22;1.88;;;1.60;99.90;;;;;;5060512;28;20082;-73
2021/04/04 03:11:38;;;;;;;4.35;1.73;;;1.50;99.90;;;;;;5060723;28;20108;-73
2021/04/04 03:14:05;;;;;;;4.35;1.88;;;1.50;99.90;;;;;;5057763;28;20025;-73
2021/04/04 03:16:32;;;;;;;3.10;1.70;;;1.50;99.90;;;;;;5062193;28;20433;-73
2021/04/04 03:19:00;;;;;;;3.45;1.80;;;1.50;99.90;;;;;;5063054;28;20376;-73
2021/04/04 03:21:27;;;;;;;3.10;1.55;;;1.40;99.90;;;;;;5061492;28;20122;-73
2021/04/04 03:23:55;;;;;;;3.03;1.70;;;1.40;99.90;;;;;;5063483;28;20502;-74
2021/04/04 03:26:21;;;;;;;5.82;1.45;;;1.30;99.90;;;;;;5062703;28;20078;-73
2021/04/04 03:28:47;;;;;;;1.63;1.10;;;1.30;99.90;;;;;;5059667;28;20033;-73
2021/04/04 03:31:17;;;;;;;3.90;1.67;;;1.20;99.90;;;;;;5044985;28;20495;-73
2021/04/04 03:33:43;;;;;;;5.18;1.58;;;1.20;99.90;;;;;;5064351;28;20037;-73
2021/04/04 03:36:16;;;;;;;2.70;1.27;;;1.20;99.90;;;;;;5060944;28;20028;-73
2021/04/04 03:38:43;;;;;;;1.67;1.50;;;1.10;99.90;;;;;;5061023;28;20047;-73
2021/04/04 03:41:11;;;;;;;3.10;1.60;;;1.00;99.90;;;;;;5059163;28;20053;-73
2021/04/04 03:43:38;;;;;;;3.60;1.63;;;1.00;99.90;;;;;;5061677;28;20075;-73
2021/04/04 03:46:06;;;;;;;2.38;1.55;;;1.00;99.90;;;;;;5063930;28;20479;-73
2021/04/04 03:48:33;;;;;;;2.97;1.45;;;1.00;99.90;;;;;;5060604;28;20516;-74
2021/04/04 03:51:02;;;;;;;3.67;1.60;;;0.90;99.90;;;;;;5061930;28;20021;-74
2021/04/04 03:53:30;;;;;;;3.70;1.63;;;0.90;99.90;;;;;;5092188;28;20025;-73
2021/04/04 03:56:00;;;;;;;2.72;1.60;;;0.80;99.90;;;;;;5063758;28;20029;-73
2021/04/04 03:58:27;;;;;;;5.00;1.70;;;0.80;99.90;;;;;;5062226;28;20027;-73
2021/04/04 04:00:56;;;;;;;4.28;1.33;;;0.80;99.90;;;;;;5061520;28;20429;-73
2021/04/04 04:03:23;;;;;;;3.38;1.60;;;0.80;99.90;;;;;;5063868;28;20025;-73
2021/04/04 04:05:49;;;;;;;2.10;1.35;;;0.70;99.90;;;;;;5059351;28;20057;-73
2021/04/04 04:08:17;;;;;;;2.28;1.40;;;0.70;99.90;;;;;;5062078;28;20056;-73
2021/04/04 04:10:44;;;;;;;2.22;1.50;;;0.70;99.90;;;;;;5062803;28;20169;-73
2021/04/04 04:13:11;;;;;;;3.05;1.75;;;0.60;99.90;;;;;;5062067;28;20039;-73
2021/04/04 04:15:37;;;;;;;4.85;1.63;;;0.60;99.90;;;;;;5062370;28;20510;-74
2021/04/04 04:18:04;;;;;;;2.92;1.42;;;0.60;99.90;;;;;;5062995;28;20025;-74
2021/04/04 04:20:30;;;;;;;3.13;1.30;;;0.50;99.90;;;;;;5057498;28;20443;-74
2021/04/04 04:22:59;;;;;;;2.78;1.48;;;0.60;99.90;;;;;;5063185;28;20021;-74
2021/04/04 04:25:29;;;;;;;2.00;1.20;;;0.50;99.90;;;;;;5059609;28;20392;-74
2021/04/04 04:27:57;;;;;;;2.63;1.48;;;0.50;99.90;;;;;;5060235;28;20060;-74
2021/04/04 04:30:24;;;;;;;1.98;1.40;;;0.50;99.90;;;;;;5045453;28;20039;-74
2021/04/04 04:32:54;;;;;;;3.65;1.30;;;0.40;99.90;;;;;;5061127;28;20029;-74
2021/04/04 04:35:21;;;;;;;2.47;1.10;;;0.40;99.90;;;;;;5060178;28;20029;-74
2021/04/04 04:37:48;;;;;;;4.03;1.52;;;0.30;99.90;;;;;;5091923;28;20387;-74
2021/04/04 04:40:14;;;;;;;2.63;1.25;;;0.30;99.90;;;;;;5060127;28;20507;-74
2021/04/04 04:42:42;;;;;;;1.98;1.30;;;0.30;99.90;;;;;;5060797;28;20033;-74
2021/04/04 04:45:16;;;;;;;3.53;1.58;;;0.30;99.90;;;;;;5058825;28;20111;-74
2021/04/04 04:47:42;;;;;;;4.82;1.55;;;0.30;99.90;;;;;;5062945;28;20033;-74
2021/04/04 04:50:10;;;;;;;2.90;1.65;;;0.20;99.90;;;;;;5058851;28;20029;-74
2021/04/04 04:52:36;;;;;;;3.15;1.30;;;0.20;99.90;;;;;;5061151;28;20029;-74
2021/04/04 04:55:03;;;;;;;4.72;1.70;;;0.20;99.90;;;;;;5061100;28;20539;-74
2021/04/04 04:57:29;;;;;;;3.05;1.38;;;0.10;99.90;;;;;;5057147;28;20394;-74
2021/04/04 04:59:57;;;;;;;3.97;1.52;;;0.20;99.90;;;;;;5062030;28;20116;-74
2021/04/04 05:02:23;;;;;;;1.38;1.27;;;0.20;99.90;;;;;;5041937;28;20051;-74
2021/04/04 05:04:49;;;;;;;2.25;1.38;;;0.20;99.90;;;;;;5060612;28;20032;-74
2021/04/04 05:07:18;;;;;;;4.82;1.70;;;0.20;99.90;;;;;;5059045;28;20025;-74
2021/04/04 05:09:46;;;;;;;2.22;1.20;;;0.20;99.90;;;;;;5060556;28;20036;-74
2021/04/04 05:12:17;;;;;;;6.03;1.77;;;0.30;99.90;;;;;;5061483;28;20066;-74
2021/04/04 05:14:43;;;;;;;3.45;1.52;;;0.30;99.90;;;;;;5060162;28;20060;-74
2021/04/04 05:17:09;;;;;;;3.13;1.33;;;0.30;99.90;;;;;;5061744;28;20451;-74
2021/04/04 05:19:35;;;;;;;2.03;1.10;;;0.30;99.90;;;;;;5060100;28;20025;-74
2021/04/04 05:22:01;;;;;;;3.83;1.23;;;0.40;99.90;;;;;;5060019;28;20032;-74
2021/04/04 05:24:27;;;;;;;4.68;1.35;;;0.30;99.90;;;;;;5062498;28;20033;-74
2021/04/04 05:26:54;;;;;;;3.65;1.52;;;0.30;99.90;;;;;;5043946;28;20052;-74
2021/04/04 05:29:20;;;;;;;2.70;1.27;;;0.20;99.90;;;;;;5062193;28;20025;-74
2021/04/04 05:31:50;;;;;;;3.67;1.45;;;0.30;99.90;;;;;;5062441;28;20558;-74
2021/04/04 05:34:18;;;;;;;1.42;1.10;;;0.30;99.90;;;;;;5059984;28;20033;-74
2021/04/04 05:36:55;;;;;;;3.28;1.55;;;0.40;99.90;;;;;;5061354;28;20020;-74
2021/04/04 05:39:24;;;;;;;3.97;1.60;;;0.50;99.90;;;;;;5057146;28;20706;-74
2021/04/04 05:41:53;;;;;;;4.65;1.42;;;0.50;99.90;;;;;;5057439;28;20024;-74
2021/04/04 05:44:47;;;;;;;2.67;1.42;;;0.50;99.90;;;;;;5060428;28;20067;-74
2021/04/04 05:47:42;;;;;;;2.53;1.30;;;0.70;99.90;;;;;;5052719;28;20039;-74
2021/04/04 05:50:10;;;;;;;3.40;1.48;;;0.80;99.90;;;;;;5061918;28;20024;-74
2021/04/04 05:52:51;;;;;;;1.83;1.45;;;1.00;99.90;;;;;;5058701;28;20021;-74
2021/04/04 05:55:25;;;;;;;2.95;1.83;;;1.00;99.90;;;;;;5056445;28;20024;-74
2021/04/04 05:57:57;;;;;;;2.83;1.87;;;1.30;99.90;;;;;;5057186;28;20071;-74
2021/04/04 06:00:30;;;;;;;3.33;1.73;;;1.70;99.90;;;;;;5059062;28;20036;-74
2021/04/04 06:03:31;;;;;;;3.88;1.65;;;2.30;99.90;;;;;;5057697;28;20056;-74
2021/04/04 06:06:12;;;;;;;1.63;1.25;;;2.90;99.90;;;;;;5053597;28;20029;-74
2021/04/04 06:09:03;;;;;;;3.22;1.23;;;3.60;99.90;;;;;;5059235;28;20040;-74
2021/04/04 06:12:12;;;;;;;4.30;1.60;;;4.30;99.90;;;;;;5088855;28;20423;-74
2021/04/04 06:15:16;;;;;;;6.38;2.00;;;4.90;99.90;;;;;;5057914;28;20025;-74
2021/04/04 06:18:05;;;;;;;3.47;2.25;;;5.30;99.90;;;;;;5056575;28;20036;-74
2021/04/04 06:20:44;;;;;;;6.25;2.13;;;5.80;99.90;;;;;;5056850;28;20029;-74
2021/04/04 06:23:26;;;;;;;4.03;2.58;;;6.20;99.90;;;;;;5056992;28;20025;-73
2021/04/04 06:26:08;;;;;;;2.90;2.25;;;6.50;99.90;;;;;;5057366;28;20079;-74
2021/04/04 06:28:50;;;;;;;2.45;1.33;;;6.80;99.60;;;;;;5059817;28;20033;-74
2021/04/04 06:31:30;;;;;;;3.83;1.60;;;7.20;99.00;;;;;;5090437;28;20025;-74
2021/04/04 06:34:11;;;;;;;3.10;1.58;;;7.60;96.40;;;;;;5058348;28;20423;-74
2021/04/04 06:36:59;;;;;;;2.85;1.50;;;8.00;93.90;;;;;;5056855;28;20595;-74
2021/04/04 06:39:49;;;;;;;2.38;1.25;;;8.20;93.00;;;;;;5059674;28;20108;-74
2021/04/04 06:42:25;;;;;;;2.63;1.67;;;8.60;91.90;;;;;;5057721;28;20448;-74
2021/04/04 06:45:12;;;;;;;4.20;2.40;;;8.70;92.00;;;;;;5056916;28;20033;-73
2021/04/04 06:48:00;;;;;;;8.27;1.55;;;8.90;89.80;;;;;;5056531;28;20040;-74
2021/04/04 06:50:30;;;;;;;4.65;2.25;;;8.90;90.20;;;;;;5058646;28;20029;-73
2021/04/04 06:53:12;;;;;;;6.55;2.97;;;9.10;88.90;;;;;;5059735;28;20112;-73
2021/04/04 06:55:38;;;;;;;2.25;1.17;;;9.30;88.90;;;;;;5058210;28;20143;-73
2021/04/04 06:58:26;;;;;;;5.10;1.75;;;9.40;86.20;;;;;;5049120;28;20042;-74
2021/04/04 07:01:14;;;;;;;4.28;1.67;;;9.70;85.40;;;;;;5054416;28;20159;-73
2021/04/04 07:04:01;;;;;;;3.95;1.65;;;10.10;82.00;;;;;;5051234;28;20391;-73
2021/04/04 07:06:26;;;;;;;5.45;2.17;;;10.40;79.50;;;;;;5050102;28;20412;-73
2021/04/04 07:09:17;;;;;;;2.58;1.95;;;10.50;77.10;;;;;;5050061;28;20021;-74
2021/04/04 07:11:45;;;;;;;2.42;1.60;;;10.20;73.90;;;;;;5049203;28;20088;-74
2021/04/04 07:14:29;;;;;;;2.72;1.52;;;10.30;72.20;;;;;;5052347;28;20033;-74
2021/04/04 07:17:23;;;;;;;5.50;1.90;;;10.40;72.80;;;;;;5059630;28;20090;-74
2021/04/04 07:20:26;;;;;;;2.75;1.40;;;11.00;74.20;;;;;;5055745;28;20040;-74
2021/04/04 07:23:39;;;;;;;1.77;1.23;;;11.60;72.10;;;;;;5052376;28;20056;-74
2021/04/04 07:26:30;;;;;;;2.95;1.58;;;12.20;69.70;;;;;;5055317;28;20122;-74
2021/04/04 07:29:22;;;;;;;3.88;1.30;;;12.90;64.10;;;;;;5042079;28;20115;-74
2021/04/04 07:32:00;;;;;;;2.65;1.58;;;13.10;58.60;;;;;;5055386;28;20032;-74
2021/04/04 07:34:43;;;;;;;2.83;1.25;;;13.10;58.90;;;;;;5056936;28;20033;-74
2021/04/04 07:37:31;;;;;;;1.45;1.10;;;13.20;59.10;;;;;;5049282;28;20418;-74
2021/04/04 07:40:14;;;;;;;3.03;1.30;;;13.40;58.40;;;;;;5050932;28;20029;-75
2021/04/04 07:42:45;;;;;;;2.75;1.20;;;13.70;56.50;;;;;;5054581;28;20020;-75
2021/04/04 07:45:18;;;;;;;2.35;1.15;;;14.00;56.00;;;;;;5053958;28;20446;-75
2021/04/04 07:48:23;;;;;;;2.38;1.48;;;14.30;55.30;;;;;;5055384;28;20067;-75
2021/04/04 07:51:09;;;;;;;3.28;1.25;;;14.50;55.00;;;;;;5056595;28;20196;-74
2021/04/04 07:54:07;;;;;;;1.73;1.30;;;14.40;52.00;;;;;;5055333;28;20560;-74
2021/04/04 07:56:38;;;;;;;3.40;1.50;;;13.50;53.10;;;;;;5040926;28;20779;-74
2021/04/04 07:59:27;;;;;;;6.00;2.60;;;13.20;56.00;;;;;;5056087;28;20037;-74
2021/04/04 08:02:15;;;;;;;2.08;1.73;;;12.80;55.40;;;;;;5054143;28;20029;-74
2021/04/04 08:05:05;;;;;;;1.52;1.17;;;12.30;56.90;;;;;;5058982;28;20056;-74
2021/04/04 08:07:52;;;;;;;3.55;1.73;;;12.10;59.30;;;;;;5055786;28;20029;-74
2021/04/04 08:10:35;;;;;;;2.05;1.20;;;12.00;57.60;;;;;;5056940;28;20027;-74
2021/04/04 08:13:21;;;;;;;2.92;1.67;;;11.80;58.00;;;;;;5054387;28;20061;-74
2021/04/04 08:16:10;;;;;;;3.92;1.20;;;11.80;60.00;;;;;;5072351;28;20044;-74
2021/04/04 08:18:37;;;;;;;2.55;1.40;;;11.70;56.60;;;;;;5059329;28;20029;-74
2021/04/04 08:21:18;;;;;;;3.40;1.20;;;11.60;56.30;;;;;;5058202;28;20568;-73
2021/04/04 08:24:03;;;;;;;3.28;0.80;;;11.30;57.50;;;;;;5059391;28;20116;-73
2021/04/04 08:26:38;;;;;;;4.10;1.27;;;11.20;57.80;;;;;;5062798;28;20024;-74
2021/04/04 08:29:13;;;;;;;2.40;1.10;;;11.10;59.90;;;;;;5061856;28;20017;-73
2021/04/04 08:31:54;;;;;;;2.65;0.90;;;11.00;57.60;;;;;;5058198;28;20025;-73
2021/04/04 08:34:39;;;;;;;1.70;0.98;;;10.70;55.80;;;;;;5056628;28;20060;-74
2021/04/04 08:37:14;;;;;;;6.18;3.60;;;10.60;59.80;;;;;;5049111;28;20039;-74
2021/04/04 08:39:47;;;;;;;1.17;0.85;;;10.60;57.90;;;;;;5060438;28;20052;-74
2021/04/04 08:42:17;;;;;;;4.22;0.90;;;10.70;58.50;;;;;;5052012;28;20029;-74
2021/04/04 08:44:50;;;;;;;2.17;1.13;;;10.80;58.60;;;;;;5025735;28;20115;-75
2021/04/04 08:47:51;;;;;;;2.25;0.90;;;10.90;58.00;;;;;;5050939;28;20108;-74
2021/04/04 08:50:20;;;;;;;1.67;0.90;;;11.00;55.50;;;;;;5044552;28;20081;-74
2021/04/04 08:53:11;;;;;;;2.97;1.40;;;10.60;54.80;;;;;;5057596;28;20104;-73
2021/04/04 08:55:39;;;;;;;1.38;0.90;;;10.30;57.20;;;;;;5053508;28;20388;-73
2021/04/04 08:58:07;;;;;;;1.83;0.80;;;10.00;58.80;;;;;;5058250;28;20041;-73
2021/04/04 09:00:35;;;;;;;1.30;0.80;;;9.90;56.70;;;;;;5059784;28;20052;-73
2021/04/04 09:03:21;;;;;;;2.75;1.55;;;9.80;59.40;;;;;;5058917;28;20039;-74
2021/04/04 09:05:48;;;;;;;2.05;0.80;;;9.90;60.90;;;;;;5062448;28;20020;-75
2021/04/04 09:08:15;;;;;;;2.78;1.60;;;9.90;60.30;;;;;;5061177;28;20021;-74
2021/04/04 09:10:45;;;;;;;4.18;1.50;;;9.90;58.00;;;;;;5060391;28;20024;-73
2021/04/04 09:13:21;;;;;;;2.70;1.50;;;9.90;58.90;;;;;;5057742;28;20021;-74
2021/04/04 09:15:48;;;;;;;2.10;1.30;;;9.90;62.90;;;;;;5058730;28;20033;-73
2021/04/04 09:18:16;;;;;;;3.10;2.15;;;10.00;59.80;;;;;;5060843;28;20103;-76
2021/04/04 09:20:44;;;;;;;1.55;1.10;;;10.10;62.40;;;;;;5060414;28;20033;-75
2021/04/04 09:23:12;;;;;;;2.22;1.48;;;10.30;60.10;;;;;;5059391;28;20029;-74
2021/04/04 09:25:50;;;;;;;2.88;1.58;;;10.40;60.80;;;;;;5060314;28;20068;-75
2021/04/04 09:28:17;;;;;;;6.85;1.58;;;10.40;58.30;;;;;;5056881;28;20527;-74
2021/04/04 09:30:45;;;;;;;3.58;1.70;;;10.40;59.40;;;;;;5057262;28;20111;-74
2021/04/04 09:33:18;;;;;;;3.15;1.40;;;10.40;59.50;;;;;;5058432;28;20029;-74
2021/04/04 09:35:46;;;;;;;6.40;1.35;;;10.40;60.30;;;;;;5057481;28;20551;-73
2021/04/04 09:38:16;;;;;;;2.15;1.40;;;10.40;58.90;;;;;;5057581;28;20047;-74
2021/04/04 09:40:43;;;;;;;2.17;1.38;;;10.40;61.80;;;;;;5057898;28;20459;-74
2021/04/04 09:43:16;;;;;;;2.78;1.70;;;10.50;60.60;;;;;;5057454;28;20032;-73
2021/04/04 09:45:43;;;;;;;5.82;1.40;;;10.50;59.70;;;;;;5057772;28;20028;-76
2021/04/04 09:48:23;;;;;;;3.13;2.15;;;10.50;59.50;;;;;;5061116;28;20044;-74
2021/04/04 09:51:04;;;;;;;2.42;1.60;;;10.50;59.40;;;;;;5059283;28;20387;-74
2021/04/04 09:53:45;;;;;;;5.18;1.80;;;10.50;59.00;;;;;;5059728;28;20032;-73
2021/04/04 09:56:12;;;;;;;4.82;2.40;;;10.50;58.90;;;;;;5088489;28;20116;-74
2021/04/04 09:58:43;;;;;;;3.63;1.90;;;10.40;56.30;;;;;;5059891;28;20016;-74
2021/04/04 10:01:20;;;;;;;3.28;1.70;;;10.40;58.30;;;;;;5051646;28;20055;-74
2021/04/04 10:03:58;;;;;;;5.28;2.20;;;10.50;61.10;;;;;;5054060;28;20040;-74
2021/04/04 10:06:24;;;;;;;5.00;2.38;;;10.70;60.10;;;;;;5058408;28;20021;-74
2021/04/04 10:09:04;;;;;;;3.33;1.65;;;10.80;58.20;;;;;;5060111;28;20035;-74
2021/04/04 10:11:32;;;;;;;2.80;1.90;;;10.80;57.60;;;;;;5060321;28;20025;-73
2021/04/04 10:14:11;;;;;;;3.53;1.70;;;10.60;56.00;;;;;;5059475;28;20029;-73
2021/04/04 10:16:38;;;;;;;4.68;1.50;;;10.50;59.30;;;;;;5056339;28;20044;-75
2021/04/04 10:19:11;;;;;;;6.38;1.85;;;10.50;59.20;;;;;;5075187;28;20037;-74
2021/04/04 10:21:39;;;;;;;4.50;2.17;;;10.50;58.40;;;;;;5055751;28;20405;-74
2021/04/04 10:24:28;;;;;;;6.03;1.58;;;10.60;59.60;;;;;;5055820;28;20377;-74
2021/04/04 10:27:23;;;;;;;2.20;1.40;;;10.70;59.90;;;;;;5054269;28;20055;-77
2021/04/04 10:30:11;;;;;;;3.25;1.58;;;10.80;57.90;;;;;;5093318;28;20048;-74
2021/04/04 10:32:41;;;;;;;3.05;1.50;;;10.90;59.30;;;;;;5057329;28;20017;-73
2021/04/04 10:35:10;;;;;;;3.38;2.03;;;10.90;58.40;;;;;;5058840;28;20035;-74
2021/04/04 10:37:36;;;;;;;6.15;1.85;;;10.70;56.00;;;;;;5059719;28;20024;-74
2021/04/04 10:40:07;;;;;;;2.70;1.80;;;10.60;56.90;;;;;;5060408;28;20048;-73
2021/04/04 10:42:34;;;;;;;2.05;1.67;;;10.50;55.30;;;;;;5055817;28;20107;-74
2021/04/04 10:45:11;;;;;;;4.82;1.90;;;10.40;56.10;;;;;;5059644;28;20036;-74
2021/04/04 10:47:38;;;;;;;3.75;1.73;;;10.30;57.60;;;;;;5052126;28;20021;-74
2021/04/04 10:50:07;;;;;;;5.03;1.67;;;10.30;58.90;;;;;;5058267;28;20032;-73
2021/04/04 10:52:34;;;;;;;4.25;1.83;;;10.30;57.50;;;;;;5055566;28;20765;-73
2021/04/04 10:55:01;;;;;;;4.28;1.73;;;10.40;58.90;;;;;;5059659;28;20395;-73
2021/04/04 10:57:28;;;;;;;2.17;1.45;;;10.50;56.10;;;;;;5060238;28;20102;-73
2021/04/04 10:59:55;;;;;;;2.78;1.80;;;10.40;54.20;;;;;;5056536;28;20060;-73
2021/04/04 11:02:24;;;;;;;5.70;1.35;;;10.30;56.40;;;;;;5055408;28;20403;-73
2021/04/04 11:04:50;;;;;;;3.20;1.73;;;10.40;59.80;;;;;;5049804;28;20183;-73
2021/04/04 11:07:18;;;;;;;5.53;2.22;;;10.40;58.10;;;;;;5053077;28;20487;-73
2021/04/04 11:09:45;;;;;;;3.70;1.80;;;10.60;57.50;;;;;;5057732;28;20070;-73
2021/04/04 11:12:11;;;;;;;5.10;1.77;;;10.70;57.00;;;;;;5056226;28;20025;-73
2021/04/04 11:15:14;;;;;;;2.92;1.67;;;10.80;59.10;;;;;;5055182;28;20029;-73
2021/04/04 11:17:44;;;;;;;4.28;1.40;;;10.90;57.80;;;;;;5047229;28;20045;-74
2021/04/04 11:20:15;;;;;;;2.38;1.92;;;10.90;58.40;;;;;;5058261;28;20042;-73
2021/04/04 11:22:41;;;;;;;3.35;1.95;;;10.90;58.40;;;;;;5053810;28;20033;-73
2021/04/04 11:25:09;;;;;;;4.70;1.80;;;10.90;56.90;;;;;;5053811;28;20408;-73
2021/04/04 11:27:45;;;;;;;1.85;1.50;;;11.00;57.00;;;;;;5052563;28;20040;-73
2021/04/04 11:30:34;;;;;;;4.63;1.77;;;11.10;57.90;;;;;;5052898;28;20029;-74
2021/04/04 11:33:15;;;;;;;5.40;1.98;;;11.30;56.40;;;;;;5046805;28;20033;-75
2021/04/04 11:36:02;;;;;;;3.88;1.48;;;11.40;55.00;;;;;;5059909;28;20629;-74
2021/04/04 11:38:33;;;;;;;3.47;1.60;;;11.50;55.60;;;;;;5061923;28;20605;-73
2021/04/04 11:41:23;;;;;;;4.05;1.85;;;11.60;56.40;;;;;;5058194;28;20028;-74
2021/04/04 11:43:51;;;;;;;4.13;1.77;;;11.90;56.40;;;;;;5058286;28;20032;-74
2021/04/04 11:46:57;;;;;;;5.50;1.40;;;12.10;54.00;;;;;;5062219;28;20080;-73
2021/04/04 11:49:28;;;;;;;6.10;2.35;;;12.10;54.40;;;;;;5010865;28;20037;-74
2021/04/04 11:51:54;;;;;;;5.32;2.20;;;12.10;53.20;;;;;;5009870;28;20018;-73
2021/04/04 11:54:51;;;;;;;2.90;1.73;;;12.30;53.60;;;;;;5021619;28;20037;-74
2021/04/04 11:57:37;;;;;;;4.43;2.40;;;12.40;54.40;;;;;;5060946;28;20033;-73
2021/04/04 12:00:09;;;;;;;3.25;1.83;;;12.60;51.70;;;;;;5059172;28;20033;-73
2021/04/04 12:02:37;;;;;;;4.35;1.65;;;12.50;49.50;;;;;;5057736;28;20032;-73
2021/04/04 12:05:09;;;;;;;5.80;2.10;;;12.40;52.50;;;;;;5042291;28;20040;-74
2021/04/04 12:07:50;;;;;;;7.35;2.10;;;12.50;56.00;;;;;;5059365;28;20059;-73
2021/04/04 12:10:25;;;;;;;3.58;2.15;;;12.50;50.60;;;;;;5061265;28;20024;-73
2021/04/04 12:12:51;;;;;;;5.10;2.00;;;12.50;50.90;;;;;;5059576;28;20645;-73
2021/04/04 12:15:19;;;;;;;2.58;1.40;;;12.40;54.00;;;;;;5057137;28;20076;-73
2021/04/04 12:17:50;;;;;;;2.85;1.85;;;12.50;56.80;;;;;;5060134;28;20021;-74
2021/04/04 12:20:20;;;;;;;3.85;1.85;;;12.80;52.30;;;;;;5054358;28;20048;-73
2021/04/04 12:22:46;;;;;;;2.80;1.85;;;13.00;51.80;;;;;;5057475;28;20035;-73
2021/04/04 12:25:16;;;;;;;3.65;1.98;;;13.30;51.80;;;;;;5058036;28;20071;-74
2021/04/04 12:27:44;;;;;;;4.72;2.15;;;13.30;51.70;;;;;;5058950;28;20024;-74
2021/04/04 12:30:22;;;;;;;7.88;2.22;;;13.40;48.80;;;;;;5074401;28;20036;-73
2021/04/04 12:32:48;;;;;;;3.13;1.45;;;13.40;48.40;;;;;;5059796;28;20063;-74
2021/04/04 12:35:23;;;;;;;4.00;2.13;;;13.40;50.50;;;;;;5054212;28;20025;-74
2021/04/04 12:37:49;;;;;;;7.18;2.33;;;13.30;51.40;;;;;;5054122;28;20039;-73
2021/04/04 12:40:15;;;;;;;4.97;2.30;;;13.50;49.90;;;;;;5057685;28;20056;-73
2021/04/04 12:42:40;;;;;;;6.65;2.45;;;13.50;48.30;;;;;;5052717;28;20056;-73
2021/04/04 12:45:09;;;;;;;5.40;1.88;;;13.20;48.80;;;;;;5054478;28;20032;-73
2021/04/04 12:47:38;;;;;;;4.45;1.80;;;13.10;51.60;;;;;;5054111;28;20027;-74
2021/04/04 12:50:13;;;;;;;3.47;1.35;;;13.10;50.90;;;;;;5052467;28;20124;-73
2021/04/04 12:52:49;;;;;;;5.20;2.22;;;13.10;52.70;;;;;;5080521;28;20110;-73
2021/04/04 12:55:24;;;;;;;3.88;2.20;;;13.20;49.10;;;;;;5052601;28;20415;-73
2021/04/04 12:58:10;;;;;;;5.70;1.92;;;13.20;50.60;;;;;;5050807;28;20024;-73
2021/04/04 13:00:39;;;;;;;;;;;13.40;51.10;;;;;;5054339;28;20491;-73
2021/04/04 13:03:08;;;;;;;3.45;1.75;;;13.80;51.00;;;;;;5053435;28;19915;-73
2021/04/04 13:05:35;;;;;;;3.35;1.48;;;14.00;48.80;;;;;;5052430;28;20067;-74
2021/04/04 13:08:08;;;;;;;2.10;1.80;;;14.00;48.40;;;;;;5050000;28;20033;-73
2021/04/04 13:10:34;;;;;;;3.20;1.80;;;14.30;49.20;;;;;;5052068;28;20025;-73
2021/04/04 13:13:15;;;;;;;3.38;1.80;;;14.50;48.00;;;;;;5053089;28;20399;-74
2021/04/04 13:15:41;;;;;;;2.85;1.35;;;14.70;46.20;;;;;;5050055;28;20067;-75
2021/04/04 13:18:22;;;;;;;4.75;1.85;;;14.90;47.90;;;;;;5054753;28;20029;-74
2021/04/04 13:20:54;;;;;;;2.63;1.70;;;15.00;46.20;;;;;;5052066;28;20037;-76
2021/04/04 13:23:20;;;;;;;4.75;2.30;;;14.90;44.80;;;;;;5058200;28;20036;-74